createdAt,value
2022-08-17T15:19:08.569Z,100896.88
2022-08-17T15:21:39.334Z,100908.63
2022-08-17T15:24:11.514Z,100906.63
2022-08-17T15:26:42.778Z,100912.47
2022-08-17T15:29:13.063Z,100910.31
2022-08-17T15:31:43.581Z,100917.38
2022-08-17T15:34:14.100Z,100925.03
2022-08-17T15:36:49.238Z,100932.72
2022-08-17T15:39:19.894Z,100930.66
2022-08-17T15:41:58.045Z,100928.34
2022-08-17T15:44:32.622Z,100923.53
2022-08-17T15:47:05.528Z,100930.81
2022-08-17T15:49:35.787Z,100934.06
2022-08-17T15:52:23.529Z,100923.44
2022-08-17T15:54:58.259Z,100927.72
2022-08-17T15:57:29.119Z,100934.63
2022-08-17T16:00:00.231Z,100935.63
2022-08-17T16:03:45.049Z,100935.81
2022-08-17T16:05:26.740Z,100932.13
2022-08-17T16:07:58.430Z,100928.16
2022-08-17T16:10:34.983Z,100917.63
2022-08-17T16:13:17.394Z,100915.47
2022-08-17T16:15:57.112Z,100916.47
2022-08-17T16:18:33.127Z,100911.78
2022-08-17T16:21:25.204Z,100913.09
2022-08-17T16:24:13.088Z,100906.78
2022-08-17T16:26:44.546Z,100896.03
2022-08-17T16:29:14.808Z,100890.53
2022-08-17T16:31:45.435Z,100896.38
2022-08-17T16:34:18.689Z,100891.66
2022-08-17T16:36:54.750Z,100893.09
2022-08-17T16:39:29.348Z,100898.00
2022-08-17T16:41:59.950Z,100913.72
2022-08-17T16:44:33.837Z,100902.69
2022-08-17T16:47:03.975Z,100896.88
2022-08-17T16:49:37.234Z,100899.31
2022-08-17T16:52:11.819Z,100887.78
2022-08-17T16:54:48.031Z,100895.75
2022-08-17T16:57:19.694Z,100886.66
2022-08-17T16:59:53.428Z,100881.44
2022-08-17T17:02:38.974Z,100874.81
2022-08-17T17:05:33.170Z,100874.47
2022-08-17T17:08:15.031Z,100875.31
2022-08-17T17:10:49.816Z,100861.81
2022-08-17T17:13:23.803Z,100853.25
2022-08-17T17:16:15.098Z,100855.69
2022-08-17T17:19:11.987Z,100843.53
2022-08-17T17:21:55.638Z,100842.38
2022-08-17T17:24:34.618Z,100839.31
2022-08-17T17:27:19.850Z,100840.94
2022-08-17T17:30:12.729Z,100829.41
2022-08-17T17:32:47.087Z,100830.72
2022-08-17T17:35:42.160Z,100827.97
2022-08-17T17:38:23.614Z,100826.00
2022-08-17T17:41:11.643Z,100813.69
2022-08-17T17:43:43.003Z,100815.31
2022-08-17T17:46:29.090Z,100812.56
2022-08-17T17:49:01.052Z,100813.34
2022-08-17T17:52:08.692Z,100806.72
2022-08-17T17:55:00.954Z,100811.09
2022-08-17T17:58:07.814Z,100803.16
2022-08-17T18:00:56.027Z,100801.00
2022-08-17T18:03:58.721Z,100791.63
2022-08-17T18:06:34.703Z,100785.59
2022-08-17T18:09:11.144Z,100784.78
2022-08-17T18:12:13.409Z,100788.84
2022-08-17T18:14:47.308Z,100787.72
2022-08-17T18:17:17.556Z,100793.75
2022-08-17T18:19:49.345Z,100795.88
2022-08-17T18:22:23.058Z,100794.53
2022-08-17T18:24:58.632Z,100787.22
2022-08-17T18:27:41.050Z,100798.25
2022-08-17T18:30:17.492Z,100790.66
2022-08-17T18:32:48.906Z,100789.66
2022-08-17T18:35:21.842Z,100781.09
2022-08-17T18:38:00.779Z,100776.06
2022-08-17T18:40:38.813Z,100770.34
2022-08-17T18:43:14.413Z,100773.09
2022-08-17T18:45:51.361Z,100761.78
2022-08-17T18:48:34.786Z,100751.88
2022-08-17T18:51:35.739Z,100753.16
2022-08-17T18:54:23.389Z,100757.88
2022-08-17T18:57:01.988Z,100750.09
2022-08-17T18:59:45.186Z,100749.59
2022-08-17T19:02:28.343Z,100749.28
2022-08-17T19:05:12.518Z,100750.56
2022-08-17T19:07:48.960Z,100741.34
2022-08-17T19:10:22.333Z,100741.34
2022-08-17T19:13:13.875Z,100740.38
2022-08-17T19:16:25.755Z,100740.22
2022-08-17T19:19:18.346Z,100740.22
2022-08-17T19:21:52.737Z,100736.94
2022-08-17T19:24:26.325Z,100733.69
2022-08-17T19:26:59.443Z,100732.22
2022-08-17T19:29:39.365Z,100735.47
2022-08-17T19:32:11.372Z,100729.47
2022-08-17T19:34:44.835Z,100725.91
2022-08-17T19:37:40.307Z,100711.13
2022-08-17T19:40:48.957Z,100711.63
2022-08-17T19:43:36.112Z,100711.13
2022-08-17T19:46:21.295Z,100715.50
2022-08-17T19:49:12.582Z,100717.78
2022-08-17T19:51:54.510Z,100709.63
2022-08-17T19:54:27.720Z,100719.06
2022-08-17T19:56:58.029Z,100719.06
2022-08-17T19:59:48.505Z,100713.53
2022-08-17T20:02:35.607Z,100703.91
2022-08-17T20:05:16.171Z,100714.94
2022-08-17T20:08:08.940Z,100707.19
2022-08-17T20:10:54.583Z,100710.56
2022-08-17T20:13:33.595Z,100710.06
2022-08-17T20:16:06.417Z,100699.34
2022-08-17T20:18:52.489Z,100701.47
2022-08-17T20:21:31.739Z,100700.88
2022-08-17T20:24:26.700Z,100700.34
2022-08-17T20:27:19.913Z,100698.22
2022-08-17T20:30:11.911Z,100702.91
2022-08-17T20:32:54.984Z,100710.06
2022-08-17T20:35:29.971Z,100700.34
2022-08-17T20:38:13.125Z,100698.72
2022-08-17T20:40:59.530Z,100697.41
2022-08-17T20:43:35.671Z,100696.75
2022-08-17T20:46:18.017Z,100692.09
2022-08-17T20:48:52.169Z,100681.34
2022-08-17T20:51:42.691Z,100685.75
2022-08-17T20:54:59.494Z,100688.00
2022-08-17T20:57:35.621Z,100688.31
2022-08-17T21:00:35.702Z,100682.94
2022-08-17T21:03:50.198Z,100682.66
2022-08-17T21:06:21.920Z,100684.06
2022-08-17T21:09:38.501Z,100679.69
2022-08-17T21:12:08.986Z,100677.25
2022-08-17T21:15:00.710Z,100680.34
2022-08-17T21:17:48.952Z,100670.13
2022-08-17T21:20:36.608Z,100670.44
2022-08-17T21:23:31.090Z,100673.19
2022-08-17T21:26:06.983Z,100671.25
2022-08-17T21:28:59.842Z,100677.88
2022-08-17T21:31:34.654Z,100673.84
2022-08-17T21:34:23.492Z,100680.66
2022-08-17T21:36:53.805Z,100679.34
2022-08-17T21:39:35.615Z,100684.69
2022-08-17T21:42:09.118Z,100687.13
2022-08-17T21:44:44.534Z,100681.59
2022-08-17T21:47:25.730Z,100698.66
2022-08-17T21:49:57.113Z,100689.88
2022-08-17T21:52:30.216Z,100687.75
2022-08-17T21:55:04.459Z,100690.19
2022-08-17T21:57:37.202Z,100687.13
2022-08-17T22:00:18.934Z,100686.31
2022-08-17T22:03:02.699Z,100684.19
2022-08-17T22:05:40.810Z,100681.78
2022-08-17T22:08:27.108Z,100682.09
2022-08-17T22:11:04.602Z,100693.13
2022-08-17T22:13:40.818Z,100692.63
2022-08-17T22:16:28.980Z,100688.56
2022-08-17T22:19:01.384Z,100681.44
2022-08-17T22:21:31.766Z,100685.50
2022-08-17T22:24:08.117Z,100696.38
2022-08-17T22:27:03.988Z,100698.31
2022-08-17T22:29:47.833Z,100699.16
2022-08-17T22:32:41.328Z,100704.66
2022-08-17T22:35:30.587Z,100696.06
2022-08-17T22:38:21.046Z,100696.69
2022-08-17T22:41:24.398Z,100690.69
2022-08-17T22:43:56.188Z,100695.88
2022-08-17T22:46:28.490Z,100692.13
2022-08-17T22:49:01.703Z,100693.88
